createdAt,value
2023-05-03T00:00:09.067Z,11.70
2023-05-03T00:02:39.354Z,11.70
2023-05-03T00:05:09.837Z,11.60
2023-05-03T00:07:36.897Z,11.60
2023-05-03T00:10:04.381Z,11.60
2023-05-03T00:12:31.670Z,11.60
2023-05-03T00:14:58.511Z,11.60
2023-05-03T00:17:25.825Z,11.60
2023-05-03T00:19:55.673Z,11.60
2023-05-03T00:22:23.143Z,11.60
2023-05-03T00:24:51.244Z,11.60
2023-05-03T00:27:18.973Z,11.50
2023-05-03T00:29:46.292Z,11.40
2023-05-03T00:32:13.314Z,11.40
2023-05-03T00:34:40.095Z,11.40
2023-05-03T00:37:06.917Z,11.40
2023-05-03T00:39:33.747Z,11.40
2023-05-03T00:42:01.889Z,11.40
2023-05-03T00:44:28.682Z,11.50
2023-05-03T00:46:56.157Z,11.40
2023-05-03T00:49:26.169Z,11.40
2023-05-03T00:51:59.399Z,11.40
2023-05-03T00:54:30.450Z,11.40
2023-05-03T00:56:58.132Z,11.40
2023-05-03T00:59:26.499Z,11.40
2023-05-03T01:01:53.611Z,11.40
2023-05-03T01:04:24.525Z,11.40
2023-05-03T01:07:23.644Z,11.40
2023-05-03T01:10:18.113Z,11.40
2023-05-03T01:13:06.808Z,11.40
2023-05-03T01:16:01.396Z,11.40
2023-05-03T01:18:32.512Z,11.40
2023-05-03T01:21:00.194Z,11.40
2023-05-03T01:23:32.805Z,11.30
2023-05-03T01:26:00.286Z,11.30
2023-05-03T01:28:27.809Z,11.30
2023-05-03T01:30:57.385Z,11.30
2023-05-03T01:33:31.898Z,11.30
2023-05-03T01:36:26.998Z,11.30
2023-05-03T01:38:53.908Z,11.40
2023-05-03T01:41:21.324Z,11.40
2023-05-03T01:43:48.891Z,11.40
2023-05-03T01:46:16.542Z,11.40
2023-05-03T01:48:44.240Z,11.40
2023-05-03T01:51:11.841Z,11.40
2023-05-03T01:53:39.417Z,11.40
2023-05-03T01:56:08.426Z,11.40
2023-05-03T01:58:35.284Z,11.40
2023-05-03T02:01:05.658Z,11.40
2023-05-03T02:03:32.437Z,11.40
2023-05-03T02:05:59.357Z,11.30
2023-05-03T02:08:26.131Z,11.30
2023-05-03T02:10:53.269Z,11.30
2023-05-03T02:13:20.722Z,11.30
2023-05-03T02:15:48.355Z,11.30
2023-05-03T02:18:16.564Z,11.40
2023-05-03T02:20:46.713Z,11.40
2023-05-03T02:23:13.735Z,11.40
2023-05-03T02:25:41.283Z,11.40
2023-05-03T02:28:08.131Z,11.40
2023-05-03T02:30:35.845Z,11.30
2023-05-03T02:33:02.837Z,11.40
2023-05-03T02:35:30.054Z,11.40
2023-05-03T02:37:57.552Z,11.40
2023-05-03T02:40:25.367Z,11.40
2023-05-03T02:42:52.765Z,11.30
2023-05-03T02:45:20.945Z,11.30
2023-05-03T02:47:48.425Z,11.30
2023-05-03T02:50:15.858Z,11.30
2023-05-03T02:52:43.366Z,11.30
2023-05-03T02:55:11.008Z,11.30
2023-05-03T02:57:40.436Z,11.30
2023-05-03T03:00:14.019Z,11.30
2023-05-03T03:02:41.068Z,11.30
2023-05-03T03:05:11.126Z,11.30
2023-05-03T03:07:38.226Z,11.30
2023-05-03T03:10:05.714Z,11.30
2023-05-03T03:12:33.156Z,11.40
2023-05-03T03:15:00.020Z,11.40
2023-05-03T03:17:26.955Z,11.30
2023-05-03T03:19:54.088Z,11.30
2023-05-03T03:22:21.586Z,11.30
2023-05-03T03:24:49.277Z,11.30
2023-05-03T03:27:16.793Z,11.20
2023-05-03T03:29:44.061Z,11.30
2023-05-03T03:32:11.534Z,11.20
2023-05-03T03:34:38.955Z,11.20
2023-05-03T03:37:06.816Z,11.20
2023-05-03T03:39:34.430Z,11.20
2023-05-03T03:42:02.991Z,11.20
2023-05-03T03:44:29.829Z,11.20
2023-05-03T03:46:57.372Z,11.20
2023-05-03T03:49:27.933Z,11.20
2023-05-03T03:51:54.753Z,11.20
2023-05-03T03:54:21.587Z,11.20
2023-05-03T03:56:48.565Z,11.10
2023-05-03T03:59:16.012Z,11.10
2023-05-03T04:01:43.813Z,11.00
2023-05-03T04:04:11.745Z,11.00
2023-05-03T04:06:39.397Z,11.00
2023-05-03T04:09:07.325Z,11.00
2023-05-03T04:11:35.056Z,11.10
2023-05-03T04:14:03.631Z,11.10
2023-05-03T04:16:31.232Z,11.10
2023-05-03T04:18:58.771Z,11.20
2023-05-03T04:21:27.791Z,11.10
2023-05-03T04:23:55.290Z,11.10
2023-05-03T04:26:31.965Z,11.10
2023-05-03T04:29:00.415Z,11.10
2023-05-03T04:31:28.371Z,11.10
2023-05-03T04:33:59.648Z,11.10
2023-05-03T04:36:26.695Z,11.10
2023-05-03T04:38:54.339Z,11.10
2023-05-03T04:41:21.136Z,11.10
2023-05-03T04:43:48.057Z,11.10
2023-05-03T04:46:17.767Z,11.10
2023-05-03T04:48:46.061Z,11.10
2023-05-03T04:51:13.461Z,11.10
2023-05-03T04:53:40.585Z,11.10
2023-05-03T04:56:07.665Z,11.10
2023-05-03T04:58:34.481Z,11.10
2023-05-03T05:01:01.271Z,11.10
2023-05-03T05:03:33.743Z,11.10
2023-05-03T05:06:01.453Z,11.10
2023-05-03T05:08:28.954Z,11.10
2023-05-03T05:10:56.277Z,11.10
2023-05-03T05:13:23.851Z,11.20
2023-05-03T05:15:51.358Z,11.20
2023-05-03T05:18:18.232Z,11.20
2023-05-03T05:20:45.212Z,11.10
2023-05-03T05:23:12.355Z,11.10
2023-05-03T05:25:40.526Z,11.20
2023-05-03T05:28:07.685Z,11.20
2023-05-03T05:30:35.214Z,11.20
2023-05-03T05:33:03.598Z,11.30
2023-05-03T05:35:30.708Z,11.30
2023-05-03T05:38:01.223Z,11.30
2023-05-03T05:40:28.098Z,11.30
2023-05-03T05:42:55.268Z,11.20
2023-05-03T05:45:23.094Z,11.20
2023-05-03T05:47:50.006Z,11.20
2023-05-03T05:50:18.536Z,11.20
2023-05-03T05:52:46.270Z,11.10
2023-05-03T05:55:14.786Z,11.10
2023-05-03T05:57:41.887Z,11.10
2023-05-03T06:00:15.111Z,11.10
2023-05-03T06:02:42.452Z,11.10
2023-05-03T06:05:10.106Z,11.00
2023-05-03T06:07:37.016Z,11.00
2023-05-03T06:10:05.370Z,10.90
2023-05-03T06:12:32.939Z,10.90
2023-05-03T06:15:03.105Z,10.80
2023-05-03T06:17:30.393Z,10.80
2023-05-03T06:19:58.225Z,10.90
2023-05-03T06:22:25.470Z,11.00
2023-05-03T06:24:52.956Z,11.10
2023-05-03T06:27:21.901Z,11.10
2023-05-03T06:29:50.736Z,11.20
2023-05-03T06:32:19.417Z,11.20
2023-05-03T06:34:47.147Z,11.20
2023-05-03T06:37:14.283Z,11.20
2023-05-03T06:39:41.265Z,11.30
2023-05-03T06:42:08.576Z,11.30
2023-05-03T06:44:36.876Z,11.40
2023-05-03T06:47:04.639Z,11.30
2023-05-03T06:49:32.891Z,11.40
2023-05-03T06:52:00.657Z,11.40
2023-05-03T06:54:27.457Z,11.40
2023-05-03T06:56:57.298Z,11.50
2023-05-03T06:59:24.524Z,11.40
2023-05-03T07:01:51.530Z,11.40
2023-05-03T07:04:18.934Z,11.50
2023-05-03T07:06:55.877Z,11.50
2023-05-03T07:09:35.306Z,11.50
2023-05-03T07:12:08.868Z,11.50
2023-05-03T07:14:35.932Z,11.50
2023-05-03T07:17:03.562Z,11.50
2023-05-03T07:19:33.040Z,11.50
2023-05-03T07:21:59.925Z,11.60
2023-05-03T07:24:27.814Z,11.60
2023-05-03T07:26:54.774Z,11.60
2023-05-03T07:29:21.710Z,11.50
2023-05-03T07:31:49.498Z,11.60
2023-05-03T07:34:17.291Z,11.60
2023-05-03T07:36:44.424Z,11.60
2023-05-03T07:39:11.216Z,11.60
2023-05-03T07:41:38.056Z,11.70
2023-05-03T07:44:05.065Z,11.70
2023-05-03T07:46:35.224Z,11.80
2023-05-03T07:49:03.463Z,11.70
2023-05-03T07:51:33.948Z,11.80
2023-05-03T07:54:01.679Z,11.80
2023-05-03T07:56:28.848Z,11.80
2023-05-03T07:59:08.339Z,11.80
2023-05-03T08:01:36.587Z,11.80
2023-05-03T08:04:04.740Z,11.80
2023-05-03T08:06:32.164Z,11.80
2023-05-03T08:08:59.358Z,11.80
2023-05-03T08:11:28.308Z,11.80
2023-05-03T08:13:57.209Z,11.80
2023-05-03T08:16:24.648Z,11.80
2023-05-03T08:18:51.797Z,11.80
2023-05-03T08:21:19.379Z,11.80
2023-05-03T08:23:46.512Z,11.90
2023-05-03T08:26:14.701Z,11.90
2023-05-03T08:28:42.120Z,11.90
2023-05-03T08:31:09.236Z,11.90
2023-05-03T08:33:36.842Z,11.90
2023-05-03T08:36:03.776Z,11.90
2023-05-03T08:38:31.450Z,11.90
2023-05-03T08:41:04.613Z,12.00
2023-05-03T08:43:31.784Z,12.00
2023-05-03T08:45:59.225Z,12.00
2023-05-03T08:48:27.121Z,12.00
2023-05-03T08:50:57.177Z,12.00
2023-05-03T08:53:24.101Z,12.00
2023-05-03T08:55:50.932Z,12.10
2023-05-03T08:58:17.807Z,12.10
2023-05-03T09:00:45.480Z,12.10
2023-05-03T09:03:13.444Z,12.10
2023-05-03T09:05:43.412Z,12.20
2023-05-03T09:08:13.457Z,12.20
2023-05-03T09:10:41.763Z,12.20
2023-05-03T09:13:09.667Z,12.20
2023-05-03T09:15:37.540Z,12.20
2023-05-03T09:18:13.573Z,12.20
2023-05-03T09:20:41.815Z,12.20
2023-05-03T09:23:09.116Z,12.30
2023-05-03T09:25:46.201Z,12.30
2023-05-03T09:28:14.350Z,12.30
2023-05-03T09:30:42.740Z,12.30
2023-05-03T09:33:10.532Z,12.30
2023-05-03T09:35:45.655Z,12.30
2023-05-03T09:38:26.101Z,12.30
2023-05-03T09:40:54.782Z,12.30
2023-05-03T09:43:21.573Z,12.30
2023-05-03T09:45:48.801Z,12.40
2023-05-03T09:48:16.370Z,12.50
2023-05-03T09:50:44.014Z,12.50
2023-05-03T09:53:11.508Z,12.50
2023-05-03T09:55:39.966Z,12.60
2023-05-03T09:58:07.724Z,12.60
2023-05-03T10:00:42.557Z,12.70
2023-05-03T10:03:11.454Z,12.70
2023-05-03T10:05:48.604Z,12.80
2023-05-03T10:08:34.921Z,12.80
2023-05-03T10:11:05.565Z,12.80
2023-05-03T10:13:32.484Z,12.80
2023-05-03T10:16:14.007Z,12.90
2023-05-03T10:18:58.710Z,12.80
2023-05-03T10:21:38.645Z,12.90
2023-05-03T10:24:17.191Z,12.90
2023-05-03T10:26:47.736Z,12.90
2023-05-03T10:29:46.224Z,12.80
2023-05-03T10:32:29.068Z,12.80
2023-05-03T10:35:03.613Z,12.80
2023-05-03T10:37:32.253Z,12.70
2023-05-03T10:40:11.441Z,12.70
2023-05-03T10:42:44.042Z,12.60
2023-05-03T10:45:22.045Z,12.70
2023-05-03T10:48:11.018Z,12.80
2023-05-03T10:50:42.084Z,12.80
2023-05-03T10:53:09.829Z,12.90
2023-05-03T10:55:38.101Z,13.00
2023-05-03T10:58:04.905Z,13.00
2023-05-03T11:00:41.864Z,13.00
2023-05-03T11:03:26.790Z,13.00
2023-05-03T11:05:54.196Z,13.20
2023-05-03T11:08:22.164Z,13.30
2023-05-03T11:10:51.615Z,13.30
2023-05-03T11:13:18.445Z,13.30
2023-05-03T11:15:46.997Z,13.40
2023-05-03T11:18:15.453Z,13.40
2023-05-03T11:20:42.788Z,13.50
2023-05-03T11:23:14.123Z,13.60
2023-05-03T11:25:41.713Z,13.80
2023-05-03T11:28:08.847Z,13.80
2023-05-03T11:30:35.969Z,14.00
2023-05-03T11:33:04.237Z,14.10
2023-05-03T11:35:32.016Z,14.20
2023-05-03T11:38:00.128Z,14.30
2023-05-03T11:40:27.868Z,14.40
2023-05-03T11:42:59.922Z,14.50
2023-05-03T11:45:32.958Z,14.60
2023-05-03T11:47:59.895Z,14.70
2023-05-03T11:50:28.586Z,14.90
2023-05-03T11:52:56.218Z,15.00
2023-05-03T11:55:23.342Z,15.10
2023-05-03T11:57:51.223Z,15.20
2023-05-03T12:00:18.742Z,15.20
2023-05-03T12:02:48.768Z,15.20
2023-05-03T12:05:16.527Z,15.30
2023-05-03T12:07:44.657Z,15.30
2023-05-03T12:10:23.219Z,15.30
2023-05-03T12:13:00.121Z,15.30
2023-05-03T12:15:33.624Z,15.40
2023-05-03T12:18:04.226Z,15.40
2023-05-03T12:21:28.454Z,15.40
2023-05-03T12:23:19.967Z,15.40
2023-05-03T12:25:49.229Z,15.50
2023-05-03T12:28:20.980Z,15.50
2023-05-03T12:30:49.072Z,15.50
2023-05-03T12:33:17.053Z,15.40
2023-05-03T12:35:47.329Z,15.40
2023-05-03T12:38:16.486Z,15.40
2023-05-03T12:40:45.942Z,15.40
2023-05-03T12:43:13.120Z,15.40
2023-05-03T12:45:41.259Z,15.40
2023-05-03T12:48:09.316Z,15.40
2023-05-03T12:50:38.671Z,15.50
2023-05-03T12:53:09.294Z,15.50
2023-05-03T12:55:42.629Z,15.40
2023-05-03T13:00:49.220Z,15.50
2023-05-03T13:03:32.402Z,15.50
2023-05-03T13:06:01.657Z,15.70
2023-05-03T13:08:35.307Z,15.80
2023-05-03T13:11:02.573Z,15.80
2023-05-03T13:13:30.372Z,15.90
2023-05-03T13:15:58.183Z,16.00
2023-05-03T13:18:26.043Z,16.00
2023-05-03T13:20:52.950Z,16.00
2023-05-03T13:23:19.830Z,16.00
2023-05-03T13:25:47.333Z,16.00
2023-05-03T13:28:14.225Z,15.90
2023-05-03T13:30:41.285Z,15.70
2023-05-03T13:33:08.444Z,15.60
2023-05-03T13:35:35.308Z,15.40
2023-05-03T13:38:02.364Z,15.30
2023-05-03T13:40:30.090Z,15.20
2023-05-03T13:42:56.856Z,15.10
2023-05-03T13:45:23.701Z,15.10
2023-05-03T13:50:21.365Z,15.00
2023-05-03T13:52:49.116Z,14.90
2023-05-03T13:55:15.952Z,14.80
2023-05-03T13:57:43.799Z,14.70
2023-05-03T14:00:11.361Z,14.70
2023-05-03T14:02:38.272Z,14.60
2023-05-03T14:05:06.865Z,14.60
2023-05-03T14:07:34.500Z,14.60
2023-05-03T14:10:02.237Z,14.40
2023-05-03T14:12:29.828Z,14.20
2023-05-03T14:14:57.433Z,14.10
2023-05-03T14:17:24.361Z,14.00
2023-05-03T14:19:52.346Z,13.90
2023-05-03T14:22:19.364Z,13.80
2023-05-03T14:24:47.002Z,13.70
2023-05-03T14:27:14.880Z,13.60
2023-05-03T14:29:42.185Z,13.60
2023-05-03T14:32:09.027Z,13.60
2023-05-03T14:34:36.864Z,13.60
2023-05-03T14:37:04.648Z,13.50
2023-05-03T14:39:31.562Z,13.40
2023-05-03T14:41:58.363Z,13.40
2023-05-03T14:44:26.792Z,13.30
2023-05-03T14:46:54.333Z,13.30
2023-05-03T14:49:22.359Z,13.30
2023-05-03T14:51:52.844Z,13.40
2023-05-03T14:54:23.174Z,13.40
2023-05-03T14:56:50.610Z,13.40
2023-05-03T14:59:17.655Z,13.30
2023-05-03T15:01:45.269Z,13.40
2023-05-03T15:04:12.100Z,13.40
2023-05-03T15:06:39.558Z,13.40
2023-05-03T15:09:08.532Z,13.40
2023-05-03T15:11:35.611Z,13.50
2023-05-03T15:14:05.165Z,13.40
2023-05-03T15:16:32.058Z,13.50
2023-05-03T15:19:01.120Z,13.40
2023-05-03T15:21:28.705Z,13.40
2023-05-03T15:23:56.497Z,13.30
2023-05-03T15:26:24.575Z,13.30
2023-05-03T15:28:52.117Z,13.30
2023-05-03T15:31:19.553Z,13.30
2023-05-03T15:33:46.727Z,13.30
2023-05-03T15:36:16.678Z,13.30
2023-05-03T15:38:44.874Z,13.30
2023-05-03T15:41:11.782Z,13.40
2023-05-03T15:43:38.702Z,13.40
2023-05-03T15:46:05.721Z,13.40
2023-05-03T15:48:32.679Z,13.40
2023-05-03T15:50:59.552Z,13.40
2023-05-03T15:53:27.281Z,13.40
2023-05-03T15:55:58.106Z,13.40
2023-05-03T15:58:25.724Z,13.50
2023-05-03T16:00:52.547Z,13.50
2023-05-03T16:03:19.580Z,13.50
2023-05-03T16:05:46.920Z,13.60
2023-05-03T16:08:16.959Z,13.60
2023-05-03T16:10:44.088Z,13.60
2023-05-03T16:13:11.945Z,13.50
2023-05-03T16:15:41.966Z,13.50
2023-05-03T16:18:10.219Z,13.60
2023-05-03T16:20:38.094Z,13.60
2023-05-03T16:23:09.550Z,13.50
2023-05-03T16:25:38.877Z,13.50
2023-05-03T16:28:05.678Z,13.60
2023-05-03T16:30:33.649Z,13.50
2023-05-03T16:33:02.399Z,13.50
2023-05-03T16:35:31.019Z,13.50
2023-05-03T16:37:58.015Z,13.50
2023-05-03T16:40:25.141Z,13.50
2023-05-03T16:42:52.142Z,13.40
2023-05-03T16:45:23.242Z,13.50
2023-05-03T16:47:52.039Z,13.50
2023-05-03T16:50:20.260Z,13.50
2023-05-03T16:52:47.809Z,13.50
2023-05-03T16:55:22.948Z,13.50
2023-05-03T16:57:50.852Z,13.50
2023-05-03T17:00:18.228Z,13.50
2023-05-03T17:02:45.633Z,13.40
2023-05-03T17:05:13.229Z,13.40
2023-05-03T17:07:42.005Z,13.40
2023-05-03T17:10:14.135Z,13.40
2023-05-03T17:12:45.989Z,13.40
2023-05-03T17:15:16.343Z,13.30
2023-05-03T17:17:49.680Z,13.30
2023-05-03T17:20:16.699Z,13.30
2023-05-03T17:22:44.183Z,13.30
2023-05-03T17:25:12.198Z,13.20
2023-05-03T17:27:39.006Z,13.10
2023-05-03T17:30:06.874Z,13.10
2023-05-03T17:32:33.909Z,13.10
2023-05-03T17:35:00.794Z,13.10
2023-05-03T17:37:33.028Z,13.00
2023-05-03T17:40:01.450Z,12.90
2023-05-03T17:42:29.181Z,12.90
2023-05-03T17:44:56.117Z,12.90
2023-05-03T17:47:25.189Z,12.80
2023-05-03T17:49:52.765Z,12.80
2023-05-03T17:52:19.615Z,12.80
2023-05-03T17:54:46.517Z,12.80
2023-05-03T17:57:13.459Z,12.80
2023-05-03T17:59:40.830Z,12.80
2023-05-03T18:02:10.451Z,12.80
2023-05-03T18:04:40.419Z,12.70
2023-05-03T18:07:10.270Z,12.70
2023-05-03T18:09:38.091Z,12.70
2023-05-03T18:12:05.149Z,12.60
2023-05-03T18:14:38.688Z,12.60
2023-05-03T18:17:06.261Z,12.60
2023-05-03T18:19:33.159Z,12.50
2023-05-03T18:22:00.018Z,12.40
2023-05-03T18:24:27.372Z,12.40
2023-05-03T18:26:54.837Z,12.30
2023-05-03T18:29:21.802Z,12.30
2023-05-03T18:31:49.340Z,12.30
2023-05-03T18:34:16.620Z,12.20
2023-05-03T18:36:44.441Z,12.20
2023-05-03T18:39:11.404Z,12.10
2023-05-03T18:41:38.431Z,12.10
2023-05-03T18:44:05.404Z,12.00
2023-05-03T18:46:32.288Z,12.00
2023-05-03T18:48:59.539Z,11.90
2023-05-03T18:51:27.403Z,11.90
2023-05-03T18:53:54.525Z,11.80
2023-05-03T18:56:21.676Z,11.80
2023-05-03T18:58:49.124Z,11.80
2023-05-03T19:01:16.719Z,11.80
2023-05-03T19:03:43.569Z,11.80
2023-05-03T19:06:11.456Z,11.70
2023-05-03T19:08:38.312Z,11.70
2023-05-03T19:11:12.829Z,11.60
2023-05-03T19:13:39.913Z,11.60
2023-05-03T19:16:07.747Z,11.60
2023-05-03T19:18:41.777Z,11.50
2023-05-03T19:21:08.941Z,11.40
2023-05-03T19:23:36.648Z,11.40
2023-05-03T19:26:03.671Z,11.40
2023-05-03T19:28:31.770Z,11.30
2023-05-03T19:31:02.540Z,11.40
2023-05-03T19:33:29.777Z,11.30
2023-05-03T19:35:57.404Z,11.30
2023-05-03T19:38:24.389Z,11.40
2023-05-03T19:40:58.915Z,11.40
2023-05-03T19:43:25.972Z,11.40
2023-05-03T19:45:53.021Z,11.40
2023-05-03T19:48:19.973Z,11.40
2023-05-03T19:50:47.639Z,11.40
2023-05-03T19:53:17.391Z,11.40
2023-05-03T19:56:00.080Z,11.40
2023-05-03T19:58:27.354Z,11.30
2023-05-03T20:00:54.281Z,11.20
2023-05-03T20:03:22.974Z,11.10
2023-05-03T20:05:50.115Z,11.00
2023-05-03T20:08:17.226Z,11.00
2023-05-03T20:10:46.426Z,10.80
2023-05-03T20:13:13.691Z,10.70
2023-05-03T20:15:41.375Z,10.70
2023-05-03T20:18:08.563Z,10.70
2023-05-03T20:20:35.446Z,10.70
2023-05-03T20:23:03.286Z,10.70
2023-05-03T20:25:30.145Z,10.60
2023-05-03T20:27:57.229Z,10.70
2023-05-03T20:30:25.112Z,10.70
2023-05-03T20:32:52.103Z,10.80
2023-05-03T20:35:19.543Z,10.80
2023-05-03T20:37:47.116Z,10.80
2023-05-03T20:40:14.813Z,10.70
2023-05-03T20:42:42.526Z,10.70
2023-05-03T20:45:10.267Z,10.70
2023-05-03T20:47:37.149Z,10.70
2023-05-03T20:50:04.841Z,10.60
2023-05-03T20:52:31.826Z,10.50
2023-05-03T20:55:01.995Z,10.50
2023-05-03T20:57:28.835Z,10.50
2023-05-03T20:59:55.854Z,10.50
2023-05-03T21:02:23.712Z,10.50
2023-05-03T21:04:51.442Z,10.40
2023-05-03T21:07:21.312Z,10.40
2023-05-03T21:09:48.157Z,10.30
2023-05-03T21:12:15.666Z,10.20
2023-05-03T21:14:43.313Z,10.20
2023-05-03T21:17:12.380Z,10.20
2023-05-03T21:19:39.978Z,10.10
2023-05-03T21:22:11.545Z,10.10
2023-05-03T21:24:38.871Z,10.00
2023-05-03T21:27:06.541Z,10.00
2023-05-03T21:29:33.480Z,10.00
2023-05-03T21:32:00.375Z,9.90
2023-05-03T21:34:27.280Z,9.80
2023-05-03T21:36:54.134Z,9.80
2023-05-03T21:39:22.671Z,9.70
2023-05-03T21:41:49.688Z,9.70
2023-05-03T21:44:16.575Z,9.70
2023-05-03T21:46:43.419Z,9.60
2023-05-03T21:49:10.965Z,9.60
2023-05-03T21:51:37.792Z,9.50
2023-05-03T21:54:04.821Z,9.50
2023-05-03T21:56:31.892Z,9.40
2023-05-03T21:58:59.741Z,9.40
2023-05-03T22:01:26.601Z,9.40
2023-05-03T22:03:53.563Z,9.30
2023-05-03T22:06:21.738Z,9.30
2023-05-03T22:08:49.323Z,9.30
2023-05-03T22:11:16.873Z,9.30
2023-05-03T22:14:03.108Z,9.30
2023-05-03T22:16:31.517Z,9.30
2023-05-03T22:18:58.828Z,9.20
2023-05-03T22:21:26.414Z,9.30
2023-05-03T22:23:54.477Z,9.30
2023-05-03T22:26:21.274Z,9.40
2023-05-03T22:28:48.079Z,9.40
2023-05-03T22:31:14.933Z,9.50
2023-05-03T22:33:44.952Z,9.50
2023-05-03T22:36:12.466Z,9.50
2023-05-03T22:38:42.589Z,9.50
2023-05-03T22:41:10.065Z,9.50
2023-05-03T22:43:37.120Z,9.50
2023-05-03T22:46:04.336Z,9.40
2023-05-03T22:48:32.737Z,9.50
2023-05-03T22:51:00.318Z,9.40
2023-05-03T22:53:27.230Z,9.40
2023-05-03T22:56:01.677Z,9.50
2023-05-03T22:58:28.818Z,9.50
2023-05-03T23:00:55.903Z,9.50
2023-05-03T23:03:23.415Z,9.50
2023-05-03T23:05:54.733Z,9.50
2023-05-03T23:08:21.662Z,9.50
2023-05-03T23:10:48.576Z,9.50
2023-05-03T23:13:15.567Z,9.50
2023-05-03T23:15:42.481Z,9.50
2023-05-03T23:18:09.448Z,9.50
2023-05-03T23:20:36.691Z,9.60
2023-05-03T23:23:03.571Z,9.50
2023-05-03T23:25:30.731Z,9.60
2023-05-03T23:27:58.459Z,9.60
2023-05-03T23:30:27.127Z,9.60
2023-05-03T23:32:55.475Z,9.60
2023-05-03T23:35:23.435Z,9.70
2023-05-03T23:37:50.205Z,9.70
2023-05-03T23:40:17.078Z,9.60
2023-05-03T23:42:46.339Z,9.70
2023-05-03T23:45:13.325Z,9.70
2023-05-03T23:47:40.141Z,9.70
2023-05-03T23:50:07.819Z,9.70
2023-05-03T23:52:34.786Z,9.70
2023-05-03T23:55:02.709Z,9.70
2023-05-03T23:57:30.187Z,9.70
2023-05-03T23:59:57.163Z,9.70
